sensor_id;sensor_type;location;lat;lon;timestamp;P1;durP1;ratioP1;P2;durP2;ratioP2
40781;SDS011;26493;51.938;7.626;2023-02-28T00:00:27;18.48;;;11.98;;
40781;SDS011;26493;51.938;7.626;2023-02-28T00:02:53;18.52;;;11.50;;
40781;SDS011;26493;51.938;7.626;2023-02-28T00:05:20;19.85;;;11.77;;
40781;SDS011;26493;51.938;7.626;2023-02-28T00:07:47;18.20;;;11.80;;
40781;SDS011;26493;51.938;7.626;2023-02-28T00:10:14;18.40;;;11.55;;
40781;SDS011;26493;51.938;7.626;2023-02-28T00:12:40;18.05;;;11.77;;
40781;SDS011;26493;51.938;7.626;2023-02-28T00:15:07;21.13;;;12.57;;
40781;SDS011;26493;51.938;7.626;2023-02-28T00:17:34;19.63;;;11.75;;
40781;SDS011;26493;51.938;7.626;2023-02-28T00:20:00;18.85;;;11.85;;
40781;SDS011;26493;51.938;7.626;2023-02-28T00:22:37;19.40;;;12.68;;
40781;SDS011;26493;51.938;7.626;2023-02-28T00:25:03;21.00;;;12.15;;
40781;SDS011;26493;51.938;7.626;2023-02-28T00:27:30;18.08;;;11.88;;
40781;SDS011;26493;51.938;7.626;2023-02-28T00:29:56;19.60;;;12.05;;
40781;SDS011;26493;51.938;7.626;2023-02-28T00:32:22;18.40;;;12.02;;
40781;SDS011;26493;51.938;7.626;2023-02-28T00:34:48;18.50;;;12.15;;
40781;SDS011;26493;51.938;7.626;2023-02-28T00:37:14;18.80;;;13.00;;
40781;SDS011;26493;51.938;7.626;2023-02-28T00:39:40;19.35;;;12.32;;
40781;SDS011;26493;51.938;7.626;2023-02-28T00:42:06;17.77;;;11.80;;
40781;SDS011;26493;51.938;7.626;2023-02-28T00:44:33;22.10;;;13.23;;
40781;SDS011;26493;51.938;7.626;2023-02-28T00:46:59;17.75;;;11.98;;
40781;SDS011;26493;51.938;7.626;2023-02-28T00:49:26;19.60;;;12.23;;
40781;SDS011;26493;51.938;7.626;2023-02-28T00:51:52;17.65;;;12.82;;
40781;SDS011;26493;51.938;7.626;2023-02-28T00:54:19;20.35;;;12.45;;
40781;SDS011;26493;51.938;7.626;2023-02-28T00:56:45;19.08;;;12.45;;
40781;SDS011;26493;51.938;7.626;2023-02-28T00:59:11;18.42;;;12.40;;
40781;SDS011;26493;51.938;7.626;2023-02-28T01:01:37;18.42;;;12.65;;
40781;SDS011;26493;51.938;7.626;2023-02-28T01:04:03;18.88;;;12.20;;
40781;SDS011;26493;51.938;7.626;2023-02-28T01:06:30;19.25;;;11.90;;
40781;SDS011;26493;51.938;7.626;2023-02-28T01:08:56;18.77;;;12.45;;
40781;SDS011;26493;51.938;7.626;2023-02-28T01:11:22;18.40;;;12.75;;
40781;SDS011;26493;51.938;7.626;2023-02-28T01:13:48;23.13;;;12.32;;
40781;SDS011;26493;51.938;7.626;2023-02-28T01:16:14;19.98;;;12.55;;
40781;SDS011;26493;51.938;7.626;2023-02-28T01:18:41;19.30;;;11.90;;
40781;SDS011;26493;51.938;7.626;2023-02-28T01:21:08;20.88;;;12.73;;
40781;SDS011;26493;51.938;7.626;2023-02-28T01:23:34;20.38;;;12.60;;
40781;SDS011;26493;51.938;7.626;2023-02-28T01:26:07;18.98;;;12.85;;
40781;SDS011;26493;51.938;7.626;2023-02-28T01:28:34;19.55;;;13.15;;
40781;SDS011;26493;51.938;7.626;2023-02-28T01:31:00;19.67;;;13.55;;
40781;SDS011;26493;51.938;7.626;2023-02-28T01:33:26;20.00;;;12.40;;
40781;SDS011;26493;51.938;7.626;2023-02-28T01:36:02;21.38;;;13.50;;
40781;SDS011;26493;51.938;7.626;2023-02-28T01:38:28;21.25;;;12.57;;
40781;SDS011;26493;51.938;7.626;2023-02-28T01:40:54;19.65;;;13.15;;
40781;SDS011;26493;51.938;7.626;2023-02-28T01:43:25;18.80;;;12.95;;
40781;SDS011;26493;51.938;7.626;2023-02-28T01:45:52;19.20;;;12.45;;
40781;SDS011;26493;51.938;7.626;2023-02-28T01:48:19;19.77;;;12.57;;
40781;SDS011;26493;51.938;7.626;2023-02-28T01:50:46;17.77;;;12.90;;
40781;SDS011;26493;51.938;7.626;2023-02-28T01:53:15;19.27;;;13.07;;
40781;SDS011;26493;51.938;7.626;2023-02-28T01:55:42;21.60;;;13.23;;
40781;SDS011;26493;51.938;7.626;2023-02-28T01:58:09;21.40;;;13.95;;
40781;SDS011;26493;51.938;7.626;2023-02-28T02:00:35;21.70;;;14.95;;
40781;SDS011;26493;51.938;7.626;2023-02-28T02:03:08;21.95;;;13.85;;
40781;SDS011;26493;51.938;7.626;2023-02-28T02:05:36;22.17;;;14.02;;
40781;SDS011;26493;51.938;7.626;2023-02-28T02:08:04;21.15;;;14.88;;
40781;SDS011;26493;51.938;7.626;2023-02-28T02:10:32;20.38;;;13.93;;
40781;SDS011;26493;51.938;7.626;2023-02-28T02:15:36;19.88;;;13.65;;
40781;SDS011;26493;51.938;7.626;2023-02-28T02:18:07;21.40;;;14.43;;
40781;SDS011;26493;51.938;7.626;2023-02-28T02:23:33;21.85;;;14.93;;
40781;SDS011;26493;51.938;7.626;2023-02-28T02:28:36;21.15;;;14.68;;
40781;SDS011;26493;51.938;7.626;2023-02-28T02:44:42;22.27;;;14.63;;
40781;SDS011;26493;51.938;7.626;2023-02-28T02:46:50;20.35;;;14.85;;
40781;SDS011;26493;51.938;7.626;2023-02-28T02:49:21;22.25;;;14.98;;
40781;SDS011;26493;51.938;7.626;2023-02-28T02:51:48;23.55;;;15.45;;
40781;SDS011;26493;51.938;7.626;2023-02-28T02:54:17;21.67;;;15.45;;
40781;SDS011;26493;51.938;7.626;2023-02-28T02:56:44;24.05;;;16.02;;
40781;SDS011;26493;51.938;7.626;2023-02-28T02:59:11;21.50;;;15.37;;
40781;SDS011;26493;51.938;7.626;2023-02-28T03:01:39;24.80;;;16.40;;
40781;SDS011;26493;51.938;7.626;2023-02-28T03:04:10;24.45;;;15.75;;
40781;SDS011;26493;51.938;7.626;2023-02-28T03:06:37;23.20;;;16.17;;
40781;SDS011;26493;51.938;7.626;2023-02-28T03:09:03;26.50;;;15.43;;
40781;SDS011;26493;51.938;7.626;2023-02-28T03:11:32;21.08;;;15.80;;
40781;SDS011;26493;51.938;7.626;2023-02-28T03:21:58;21.08;;;14.63;;
40781;SDS011;26493;51.938;7.626;2023-02-28T03:24:34;20.42;;;14.35;;
40781;SDS011;26493;51.938;7.626;2023-02-28T03:27:25;20.75;;;14.45;;
40781;SDS011;26493;51.938;7.626;2023-02-28T03:34:58;22.73;;;13.95;;
40781;SDS011;26493;51.938;7.626;2023-02-28T03:37:25;20.88;;;14.25;;
40781;SDS011;26493;51.938;7.626;2023-02-28T03:42:24;19.88;;;13.98;;
40781;SDS011;26493;51.938;7.626;2023-02-28T03:44:56;22.80;;;14.18;;
40781;SDS011;26493;51.938;7.626;2023-02-28T03:47:25;18.23;;;13.90;;
40781;SDS011;26493;51.938;7.626;2023-02-28T03:49:57;25.85;;;15.02;;
40781;SDS011;26493;51.938;7.626;2023-02-28T03:52:25;21.75;;;14.18;;
40781;SDS011;26493;51.938;7.626;2023-02-28T03:54:54;20.05;;;14.57;;
40781;SDS011;26493;51.938;7.626;2023-02-28T03:59:56;19.85;;;13.90;;
40781;SDS011;26493;51.938;7.626;2023-02-28T04:02:25;21.27;;;14.13;;
40781;SDS011;26493;51.938;7.626;2023-02-28T04:04:51;19.67;;;13.93;;
40781;SDS011;26493;51.938;7.626;2023-02-28T04:07:18;19.08;;;13.60;;
40781;SDS011;26493;51.938;7.626;2023-02-28T04:09:44;18.65;;;13.60;;
40781;SDS011;26493;51.938;7.626;2023-02-28T04:12:10;21.60;;;13.30;;
40781;SDS011;26493;51.938;7.626;2023-02-28T04:14:36;19.50;;;13.18;;
40781;SDS011;26493;51.938;7.626;2023-02-28T04:17:02;19.83;;;14.38;;
40781;SDS011;26493;51.938;7.626;2023-02-28T04:19:28;18.63;;;13.45;;
40781;SDS011;26493;51.938;7.626;2023-02-28T04:21:54;19.10;;;13.80;;
40781;SDS011;26493;51.938;7.626;2023-02-28T04:24:21;20.48;;;14.23;;
40781;SDS011;26493;51.938;7.626;2023-02-28T04:26:51;19.80;;;14.25;;
40781;SDS011;26493;51.938;7.626;2023-02-28T04:29:18;19.60;;;13.82;;
40781;SDS011;26493;51.938;7.626;2023-02-28T04:31:45;18.67;;;12.85;;
40781;SDS011;26493;51.938;7.626;2023-02-28T04:34:11;18.23;;;12.95;;
40781;SDS011;26493;51.938;7.626;2023-02-28T04:36:37;18.92;;;13.45;;
40781;SDS011;26493;51.938;7.626;2023-02-28T04:39:03;19.40;;;12.60;;
40781;SDS011;26493;51.938;7.626;2023-02-28T04:41:29;17.60;;;12.98;;
40781;SDS011;26493;51.938;7.626;2023-02-28T04:43:55;19.40;;;13.00;;
40781;SDS011;26493;51.938;7.626;2023-02-28T04:46:22;20.33;;;13.13;;
40781;SDS011;26493;51.938;7.626;2023-02-28T04:48:48;22.23;;;13.95;;
40781;SDS011;26493;51.938;7.626;2023-02-28T04:51:15;18.05;;;12.57;;
40781;SDS011;26493;51.938;7.626;2023-02-28T04:53:41;20.38;;;14.27;;
40781;SDS011;26493;51.938;7.626;2023-02-28T04:56:08;20.13;;;13.23;;
40781;SDS011;26493;51.938;7.626;2023-02-28T04:58:36;21.00;;;14.02;;
40781;SDS011;26493;51.938;7.626;2023-02-28T05:01:06;18.48;;;13.32;;
40781;SDS011;26493;51.938;7.626;2023-02-28T05:03:38;18.52;;;13.27;;
40781;SDS011;26493;51.938;7.626;2023-02-28T05:06:05;18.75;;;13.65;;
40781;SDS011;26493;51.938;7.626;2023-02-28T05:08:32;19.42;;;13.10;;
40781;SDS011;26493;51.938;7.626;2023-02-28T05:10:58;19.75;;;13.35;;
40781;SDS011;26493;51.938;7.626;2023-02-28T05:13:25;20.83;;;13.38;;
40781;SDS011;26493;51.938;7.626;2023-02-28T05:15:51;21.63;;;14.30;;
40781;SDS011;26493;51.938;7.626;2023-02-28T05:18:17;20.83;;;13.02;;
40781;SDS011;26493;51.938;7.626;2023-02-28T05:20:43;20.05;;;13.63;;
40781;SDS011;26493;51.938;7.626;2023-02-28T05:23:13;18.90;;;12.93;;
40781;SDS011;26493;51.938;7.626;2023-02-28T05:25:40;17.90;;;13.00;;
40781;SDS011;26493;51.938;7.626;2023-02-28T05:28:06;20.15;;;13.98;;
40781;SDS011;26493;51.938;7.626;2023-02-28T05:30:33;19.75;;;12.93;;
40781;SDS011;26493;51.938;7.626;2023-02-28T05:32:59;18.73;;;12.55;;
40781;SDS011;26493;51.938;7.626;2023-02-28T05:35:25;18.40;;;12.27;;
40781;SDS011;26493;51.938;7.626;2023-02-28T05:37:51;20.48;;;12.23;;
40781;SDS011;26493;51.938;7.626;2023-02-28T05:40:17;19.65;;;12.85;;
40781;SDS011;26493;51.938;7.626;2023-02-28T05:42:47;17.75;;;12.45;;
40781;SDS011;26493;51.938;7.626;2023-02-28T05:45:13;20.98;;;11.90;;
40781;SDS011;26493;51.938;7.626;2023-02-28T05:47:39;17.05;;;12.07;;
40781;SDS011;26493;51.938;7.626;2023-02-28T05:50:05;20.45;;;13.60;;
40781;SDS011;26493;51.938;7.626;2023-02-28T05:52:31;20.02;;;12.50;;
40781;SDS011;26493;51.938;7.626;2023-02-28T05:54:57;20.00;;;13.02;;
40781;SDS011;26493;51.938;7.626;2023-02-28T05:57:23;17.98;;;12.05;;
40781;SDS011;26493;51.938;7.626;2023-02-28T05:59:49;19.02;;;12.35;;
40781;SDS011;26493;51.938;7.626;2023-02-28T06:02:16;18.50;;;12.10;;
40781;SDS011;26493;51.938;7.626;2023-02-28T06:04:43;20.40;;;12.07;;
40781;SDS011;26493;51.938;7.626;2023-02-28T06:07:09;20.02;;;12.20;;
40781;SDS011;26493;51.938;7.626;2023-02-28T06:09:35;18.30;;;11.98;;
40781;SDS011;26493;51.938;7.626;2023-02-28T06:12:02;24.88;;;13.13;;
40781;SDS011;26493;51.938;7.626;2023-02-28T06:14:30;20.20;;;12.73;;
40781;SDS011;26493;51.938;7.626;2023-02-28T06:16:57;19.70;;;12.60;;
40781;SDS011;26493;51.938;7.626;2023-02-28T06:19:23;17.20;;;11.43;;
40781;SDS011;26493;51.938;7.626;2023-02-28T06:21:50;17.25;;;11.38;;
40781;SDS011;26493;51.938;7.626;2023-02-28T06:24:17;18.70;;;11.63;;
40781;SDS011;26493;51.938;7.626;2023-02-28T06:26:44;19.30;;;11.98;;
40781;SDS011;26493;51.938;7.626;2023-02-28T06:29:10;19.75;;;12.25;;
40781;SDS011;26493;51.938;7.626;2023-02-28T06:31:36;19.67;;;11.65;;
40781;SDS011;26493;51.938;7.626;2023-02-28T06:34:03;18.80;;;11.70;;
40781;SDS011;26493;51.938;7.626;2023-02-28T06:36:29;20.02;;;11.60;;
40781;SDS011;26493;51.938;7.626;2023-02-28T06:38:55;18.30;;;11.38;;
40781;SDS011;26493;51.938;7.626;2023-02-28T06:41:25;18.10;;;11.63;;
40781;SDS011;26493;51.938;7.626;2023-02-28T06:43:51;20.42;;;11.90;;
40781;SDS011;26493;51.938;7.626;2023-02-28T06:46:18;19.60;;;12.65;;
40781;SDS011;26493;51.938;7.626;2023-02-28T06:48:44;21.05;;;13.15;;
40781;SDS011;26493;51.938;7.626;2023-02-28T06:51:12;19.60;;;11.38;;
40781;SDS011;26493;51.938;7.626;2023-02-28T06:53:39;19.50;;;11.75;;
40781;SDS011;26493;51.938;7.626;2023-02-28T06:56:06;20.63;;;12.25;;
40781;SDS011;26493;51.938;7.626;2023-02-28T06:58:32;21.00;;;12.25;;
40781;SDS011;26493;51.938;7.626;2023-02-28T07:00:58;22.58;;;12.60;;
40781;SDS011;26493;51.938;7.626;2023-02-28T07:03:25;19.30;;;11.95;;
40781;SDS011;26493;51.938;7.626;2023-02-28T07:05:51;19.08;;;11.10;;
40781;SDS011;26493;51.938;7.626;2023-02-28T07:08:17;19.27;;;11.23;;
40781;SDS011;26493;51.938;7.626;2023-02-28T07:10:43;19.27;;;11.80;;
40781;SDS011;26493;51.938;7.626;2023-02-28T07:13:09;16.73;;;10.45;;
40781;SDS011;26493;51.938;7.626;2023-02-28T07:15:38;19.65;;;11.60;;
40781;SDS011;26493;51.938;7.626;2023-02-28T07:18:04;18.15;;;10.93;;
40781;SDS011;26493;51.938;7.626;2023-02-28T07:20:30;19.90;;;11.52;;
40781;SDS011;26493;51.938;7.626;2023-02-28T07:22:56;21.25;;;11.38;;
40781;SDS011;26493;51.938;7.626;2023-02-28T07:25:23;17.80;;;11.18;;
40781;SDS011;26493;51.938;7.626;2023-02-28T07:27:49;19.17;;;12.20;;
40781;SDS011;26493;51.938;7.626;2023-02-28T07:30:15;20.77;;;12.48;;
40781;SDS011;26493;51.938;7.626;2023-02-28T07:32:41;19.70;;;12.50;;
40781;SDS011;26493;51.938;7.626;2023-02-28T07:35:08;22.50;;;12.45;;
40781;SDS011;26493;51.938;7.626;2023-02-28T07:37:34;23.15;;;12.88;;
40781;SDS011;26493;51.938;7.626;2023-02-28T07:40:06;24.40;;;13.55;;
40781;SDS011;26493;51.938;7.626;2023-02-28T07:42:33;23.70;;;12.35;;
40781;SDS011;26493;51.938;7.626;2023-02-28T07:44:59;21.92;;;13.05;;
40781;SDS011;26493;51.938;7.626;2023-02-28T07:47:25;19.63;;;12.73;;
40781;SDS011;26493;51.938;7.626;2023-02-28T07:49:51;18.77;;;12.10;;
40781;SDS011;26493;51.938;7.626;2023-02-28T07:52:17;20.15;;;12.18;;
40781;SDS011;26493;51.938;7.626;2023-02-28T07:54:43;18.98;;;12.43;;
40781;SDS011;26493;51.938;7.626;2023-02-28T07:57:09;18.80;;;10.75;;
40781;SDS011;26493;51.938;7.626;2023-02-28T07:59:35;18.80;;;11.52;;
40781;SDS011;26493;51.938;7.626;2023-02-28T08:02:02;19.08;;;11.07;;
40781;SDS011;26493;51.938;7.626;2023-02-28T08:04:28;19.17;;;10.70;;
40781;SDS011;26493;51.938;7.626;2023-02-28T08:06:57;20.45;;;11.32;;
40781;SDS011;26493;51.938;7.626;2023-02-28T08:09:23;18.67;;;10.80;;
40781;SDS011;26493;51.938;7.626;2023-02-28T08:11:49;18.58;;;11.68;;
40781;SDS011;26493;51.938;7.626;2023-02-28T08:14:15;21.67;;;11.65;;
40781;SDS011;26493;51.938;7.626;2023-02-28T08:16:41;16.85;;;11.02;;
40781;SDS011;26493;51.938;7.626;2023-02-28T08:19:08;20.20;;;11.10;;
40781;SDS011;26493;51.938;7.626;2023-02-28T08:21:34;18.45;;;11.48;;
40781;SDS011;26493;51.938;7.626;2023-02-28T08:24:00;17.30;;;10.02;;
40781;SDS011;26493;51.938;7.626;2023-02-28T08:26:26;16.80;;;10.35;;
40781;SDS011;26493;51.938;7.626;2023-02-28T08:28:52;19.02;;;11.20;;
40781;SDS011;26493;51.938;7.626;2023-02-28T08:31:18;16.55;;;9.88;;
40781;SDS011;26493;51.938;7.626;2023-02-28T08:33:44;18.27;;;11.25;;
40781;SDS011;26493;51.938;7.626;2023-02-28T08:36:12;16.35;;;10.10;;
40781;SDS011;26493;51.938;7.626;2023-02-28T08:38:38;17.48;;;10.05;;
40781;SDS011;26493;51.938;7.626;2023-02-28T08:41:06;18.17;;;9.68;;
40781;SDS011;26493;51.938;7.626;2023-02-28T08:43:32;17.08;;;10.10;;
40781;SDS011;26493;51.938;7.626;2023-02-28T08:45:58;17.42;;;10.05;;
40781;SDS011;26493;51.938;7.626;2023-02-28T08:48:26;17.38;;;10.63;;
40781;SDS011;26493;51.938;7.626;2023-02-28T08:50:56;18.27;;;10.23;;
40781;SDS011;26493;51.938;7.626;2023-02-28T08:53:22;17.73;;;10.23;;
40781;SDS011;26493;51.938;7.626;2023-02-28T08:55:55;17.20;;;10.30;;
40781;SDS011;26493;51.938;7.626;2023-02-28T08:58:21;15.95;;;9.43;;
40781;SDS011;26493;51.938;7.626;2023-02-28T09:00:47;16.83;;;9.27;;
40781;SDS011;26493;51.938;7.626;2023-02-28T09:03:13;15.45;;;9.18;;
40781;SDS011;26493;51.938;7.626;2023-02-28T09:05:39;14.40;;;8.68;;
40781;SDS011;26493;51.938;7.626;2023-02-28T09:08:05;17.92;;;9.57;;
40781;SDS011;26493;51.938;7.626;2023-02-28T09:10:31;14.18;;;8.35;;
40781;SDS011;26493;51.938;7.626;2023-02-28T09:12:57;14.68;;;8.68;;
40781;SDS011;26493;51.938;7.626;2023-02-28T09:15:23;15.05;;;9.23;;
40781;SDS011;26493;51.938;7.626;2023-02-28T09:17:49;15.38;;;9.32;;
40781;SDS011;26493;51.938;7.626;2023-02-28T09:20:15;16.42;;;10.32;;
40781;SDS011;26493;51.938;7.626;2023-02-28T09:22:41;15.70;;;8.95;;
40781;SDS011;26493;51.938;7.626;2023-02-28T09:25:07;16.58;;;9.75;;
40781;SDS011;26493;51.938;7.626;2023-02-28T09:27:33;15.70;;;9.10;;
40781;SDS011;26493;51.938;7.626;2023-02-28T09:29:59;16.80;;;9.45;;
40781;SDS011;26493;51.938;7.626;2023-02-28T09:32:25;15.43;;;9.60;;
40781;SDS011;26493;51.938;7.626;2023-02-28T09:34:52;15.98;;;9.13;;
40781;SDS011;26493;51.938;7.626;2023-02-28T09:37:18;14.43;;;9.23;;
40781;SDS011;26493;51.938;7.626;2023-02-28T09:39:44;15.55;;;9.05;;
40781;SDS011;26493;51.938;7.626;2023-02-28T09:42:25;16.02;;;9.35;;
40781;SDS011;26493;51.938;7.626;2023-02-28T09:44:55;14.77;;;8.93;;
40781;SDS011;26493;51.938;7.626;2023-02-28T09:47:32;16.70;;;9.10;;
40781;SDS011;26493;51.938;7.626;2023-02-28T09:50:03;16.95;;;9.05;;
40781;SDS011;26493;51.938;7.626;2023-02-28T09:52:32;15.57;;;8.98;;
40781;SDS011;26493;51.938;7.626;2023-02-28T09:57:40;15.35;;;8.85;;
40781;SDS011;26493;51.938;7.626;2023-02-28T10:05:23;14.57;;;8.90;;
40781;SDS011;26493;51.938;7.626;2023-02-28T10:08:00;14.50;;;8.82;;
40781;SDS011;26493;51.938;7.626;2023-02-28T10:12:59;15.75;;;9.18;;
40781;SDS011;26493;51.938;7.626;2023-02-28T10:15:27;14.75;;;9.60;;
40781;SDS011;26493;51.938;7.626;2023-02-28T10:17:54;15.93;;;9.40;;
40781;SDS011;26493;51.938;7.626;2023-02-28T10:20:22;16.00;;;9.63;;
40781;SDS011;26493;51.938;7.626;2023-02-28T10:23:05;17.60;;;8.80;;
40781;SDS011;26493;51.938;7.626;2023-02-28T10:25:35;16.67;;;10.50;;
40781;SDS011;26493;51.938;7.626;2023-02-28T10:28:09;15.75;;;9.50;;
40781;SDS011;26493;51.938;7.626;2023-02-28T10:30:42;19.65;;;10.07;;
40781;SDS011;26493;51.938;7.626;2023-02-28T10:33:20;14.98;;;9.25;;
40781;SDS011;26493;51.938;7.626;2023-02-28T10:35:47;16.35;;;9.77;;
40781;SDS011;26493;51.938;7.626;2023-02-28T10:38:21;15.68;;;9.15;;
40781;SDS011;26493;51.938;7.626;2023-02-28T10:40:47;14.70;;;9.80;;
40781;SDS011;26493;51.938;7.626;2023-02-28T10:45:40;16.35;;;9.48;;
40781;SDS011;26493;51.938;7.626;2023-02-28T10:58:44;14.93;;;9.13;;
40781;SDS011;26493;51.938;7.626;2023-02-28T11:01:16;15.23;;;9.68;;
40781;SDS011;26493;51.938;7.626;2023-02-28T11:03:43;15.55;;;9.55;;
40781;SDS011;26493;51.938;7.626;2023-02-28T11:08:52;15.30;;;9.43;;
40781;SDS011;26493;51.938;7.626;2023-02-28T11:11:18;16.60;;;9.88;;
40781;SDS011;26493;51.938;7.626;2023-02-28T11:13:46;15.18;;;9.70;;
40781;SDS011;26493;51.938;7.626;2023-02-28T11:16:13;15.50;;;9.60;;
40781;SDS011;26493;51.938;7.626;2023-02-28T11:18:42;15.68;;;9.80;;
40781;SDS011;26493;51.938;7.626;2023-02-28T11:21:08;15.88;;;10.32;;
40781;SDS011;26493;51.938;7.626;2023-02-28T11:23:35;14.70;;;9.15;;
40781;SDS011;26493;51.938;7.626;2023-02-28T11:26:02;15.00;;;9.48;;
40781;SDS011;26493;51.938;7.626;2023-02-28T11:28:36;14.70;;;9.60;;
40781;SDS011;26493;51.938;7.626;2023-02-28T11:38:41;15.10;;;9.88;;
40781;SDS011;26493;51.938;7.626;2023-02-28T11:56:37;18.63;;;10.85;;
40781;SDS011;26493;51.938;7.626;2023-02-28T12:01:33;15.25;;;9.95;;
40781;SDS011;26493;51.938;7.626;2023-02-28T12:11:53;18.15;;;11.10;;
40781;SDS011;26493;51.938;7.626;2023-02-28T12:14:24;17.50;;;11.40;;
40781;SDS011;26493;51.938;7.626;2023-02-28T12:17:16;16.15;;;10.60;;
40781;SDS011;26493;51.938;7.626;2023-02-28T12:24:50;16.13;;;10.77;;
40781;SDS011;26493;51.938;7.626;2023-02-28T12:27:19;18.10;;;10.43;;
40781;SDS011;26493;51.938;7.626;2023-02-28T12:34:52;15.70;;;11.15;;
40781;SDS011;26493;51.938;7.626;2023-02-28T12:37:22;15.45;;;10.60;;
40781;SDS011;26493;51.938;7.626;2023-02-28T12:39:51;16.65;;;11.38;;
40781;SDS011;26493;51.938;7.626;2023-02-28T12:42:27;16.55;;;11.07;;
40781;SDS011;26493;51.938;7.626;2023-02-28T12:45:05;16.75;;;11.00;;
40781;SDS011;26493;51.938;7.626;2023-02-28T12:47:34;16.55;;;11.43;;
40781;SDS011;26493;51.938;7.626;2023-02-28T12:50:04;16.60;;;11.60;;
40781;SDS011;26493;51.938;7.626;2023-02-28T12:55:02;16.25;;;11.32;;
40781;SDS011;26493;51.938;7.626;2023-02-28T13:00:12;16.08;;;11.23;;
40781;SDS011;26493;51.938;7.626;2023-02-28T13:10:43;16.58;;;11.23;;
40781;SDS011;26493;51.938;7.626;2023-02-28T13:13:17;16.08;;;11.27;;
40781;SDS011;26493;51.938;7.626;2023-02-28T13:16:00;17.08;;;11.60;;
40781;SDS011;26493;51.938;7.626;2023-02-28T13:18:28;16.48;;;10.70;;
40781;SDS011;26493;51.938;7.626;2023-02-28T13:20:55;16.27;;;11.20;;
40781;SDS011;26493;51.938;7.626;2023-02-28T13:23:36;15.60;;;10.68;;
40781;SDS011;26493;51.938;7.626;2023-02-28T13:26:03;15.32;;;10.48;;
40781;SDS011;26493;51.938;7.626;2023-02-28T13:31:13;15.98;;;10.52;;
40781;SDS011;26493;51.938;7.626;2023-02-28T13:36:28;16.02;;;11.07;;
40781;SDS011;26493;51.938;7.626;2023-02-28T13:38:56;15.20;;;10.82;;
40781;SDS011;26493;51.938;7.626;2023-02-28T14:07:21;18.30;;;11.55;;
40781;SDS011;26493;51.938;7.626;2023-02-28T14:09:55;15.40;;;10.75;;
40781;SDS011;26493;51.938;7.626;2023-02-28T14:17:55;15.40;;;11.10;;
40781;SDS011;26493;51.938;7.626;2023-02-28T14:20:22;16.08;;;11.07;;
40781;SDS011;26493;51.938;7.626;2023-02-28T14:23:01;16.58;;;11.63;;
40781;SDS011;26493;51.938;7.626;2023-02-28T14:25:34;16.80;;;11.77;;
40781;SDS011;26493;51.938;7.626;2023-02-28T14:34:23;15.77;;;11.02;;
40781;SDS011;26493;51.938;7.626;2023-02-28T14:38:46;16.38;;;11.40;;
40781;SDS011;26493;51.938;7.626;2023-02-28T14:41:21;16.45;;;11.88;;
40781;SDS011;26493;51.938;7.626;2023-02-28T14:43:48;15.75;;;11.30;;
40781;SDS011;26493;51.938;7.626;2023-02-28T14:46:14;16.95;;;12.25;;
40781;SDS011;26493;51.938;7.626;2023-02-28T14:48:41;16.25;;;11.82;;
40781;SDS011;26493;51.938;7.626;2023-02-28T14:51:10;16.02;;;11.75;;
40781;SDS011;26493;51.938;7.626;2023-02-28T14:53:36;16.05;;;11.75;;
40781;SDS011;26493;51.938;7.626;2023-02-28T14:56:03;15.57;;;11.50;;
40781;SDS011;26493;51.938;7.626;2023-02-28T14:58:30;16.63;;;11.73;;
40781;SDS011;26493;51.938;7.626;2023-02-28T15:00:57;16.67;;;11.30;;
40781;SDS011;26493;51.938;7.626;2023-02-28T15:03:28;17.33;;;12.15;;
40781;SDS011;26493;51.938;7.626;2023-02-28T15:06:00;15.82;;;11.35;;
40781;SDS011;26493;51.938;7.626;2023-02-28T15:08:27;17.80;;;11.35;;
40781;SDS011;26493;51.938;7.626;2023-02-28T15:10:58;16.33;;;11.80;;
40781;SDS011;26493;51.938;7.626;2023-02-28T15:13:45;16.17;;;11.70;;
40781;SDS011;26493;51.938;7.626;2023-02-28T15:16:22;16.20;;;11.95;;
40781;SDS011;26493;51.938;7.626;2023-02-28T15:18:56;16.73;;;11.52;;
40781;SDS011;26493;51.938;7.626;2023-02-28T15:21:25;15.90;;;11.60;;
40781;SDS011;26493;51.938;7.626;2023-02-28T15:23:54;18.65;;;13.15;;
40781;SDS011;26493;51.938;7.626;2023-02-28T15:28:49;15.60;;;11.05;;
40781;SDS011;26493;51.938;7.626;2023-02-28T15:31:18;16.80;;;11.50;;
40781;SDS011;26493;51.938;7.626;2023-02-28T15:33:52;18.48;;;11.57;;
40781;SDS011;26493;51.938;7.626;2023-02-28T15:36:18;15.80;;;11.13;;
40781;SDS011;26493;51.938;7.626;2023-02-28T15:38:51;18.85;;;11.40;;
40781;SDS011;26493;51.938;7.626;2023-02-28T15:41:24;16.00;;;11.32;;
40781;SDS011;26493;51.938;7.626;2023-02-28T15:44:13;16.17;;;11.45;;
40781;SDS011;26493;51.938;7.626;2023-02-28T15:46:37;17.15;;;11.13;;
40781;SDS011;26493;51.938;7.626;2023-02-28T15:49:03;16.77;;;11.48;;
40781;SDS011;26493;51.938;7.626;2023-02-28T15:51:33;15.90;;;11.18;;
40781;SDS011;26493;51.938;7.626;2023-02-28T15:54:07;16.63;;;11.25;;
40781;SDS011;26493;51.938;7.626;2023-02-28T15:56:35;17.52;;;11.30;;
40781;SDS011;26493;51.938;7.626;2023-02-28T15:59:07;15.90;;;11.15;;
40781;SDS011;26493;51.938;7.626;2023-02-28T16:01:38;17.55;;;11.25;;
40781;SDS011;26493;51.938;7.626;2023-02-28T16:04:15;16.30;;;10.93;;
40781;SDS011;26493;51.938;7.626;2023-02-28T16:06:44;17.73;;;11.15;;
40781;SDS011;26493;51.938;7.626;2023-02-28T16:09:12;16.67;;;10.70;;
40781;SDS011;26493;51.938;7.626;2023-02-28T16:11:43;17.42;;;11.15;;
40781;SDS011;26493;51.938;7.626;2023-02-28T16:14:12;17.42;;;11.70;;
40781;SDS011;26493;51.938;7.626;2023-02-28T16:16:42;16.98;;;11.00;;
40781;SDS011;26493;51.938;7.626;2023-02-28T16:19:08;16.92;;;11.32;;
40781;SDS011;26493;51.938;7.626;2023-02-28T16:21:34;16.67;;;10.93;;
40781;SDS011;26493;51.938;7.626;2023-02-28T16:24:01;16.02;;;10.63;;
40781;SDS011;26493;51.938;7.626;2023-02-28T16:26:27;15.35;;;10.48;;
40781;SDS011;26493;51.938;7.626;2023-02-28T16:28:53;20.20;;;10.70;;
40781;SDS011;26493;51.938;7.626;2023-02-28T16:31:19;15.18;;;10.52;;
40781;SDS011;26493;51.938;7.626;2023-02-28T16:33:46;15.50;;;10.57;;
40781;SDS011;26493;51.938;7.626;2023-02-28T16:36:13;16.10;;;10.55;;
40781;SDS011;26493;51.938;7.626;2023-02-28T16:38:40;17.13;;;10.70;;
40781;SDS011;26493;51.938;7.626;2023-02-28T16:41:06;16.15;;;10.30;;
40781;SDS011;26493;51.938;7.626;2023-02-28T16:43:32;16.00;;;10.35;;
40781;SDS011;26493;51.938;7.626;2023-02-28T16:45:58;16.05;;;10.07;;
40781;SDS011;26493;51.938;7.626;2023-02-28T16:48:26;16.90;;;9.88;;
40781;SDS011;26493;51.938;7.626;2023-02-28T16:50:52;17.00;;;10.63;;
40781;SDS011;26493;51.938;7.626;2023-02-28T16:53:19;19.35;;;10.35;;
40781;SDS011;26493;51.938;7.626;2023-02-28T16:55:45;17.38;;;10.30;;
40781;SDS011;26493;51.938;7.626;2023-02-28T16:58:15;15.90;;;10.15;;
40781;SDS011;26493;51.938;7.626;2023-02-28T17:00:42;16.05;;;10.07;;
40781;SDS011;26493;51.938;7.626;2023-02-28T17:03:17;18.90;;;10.10;;
40781;SDS011;26493;51.938;7.626;2023-02-28T17:05:45;16.08;;;9.70;;
40781;SDS011;26493;51.938;7.626;2023-02-28T17:08:11;15.48;;;9.95;;
40781;SDS011;26493;51.938;7.626;2023-02-28T17:10:37;18.05;;;9.90;;
40781;SDS011;26493;51.938;7.626;2023-02-28T17:13:03;17.80;;;10.50;;
40781;SDS011;26493;51.938;7.626;2023-02-28T17:15:32;17.85;;;10.40;;
40781;SDS011;26493;51.938;7.626;2023-02-28T17:17:59;22.05;;;12.20;;